Flight Track Log - Related Links

Times and Time Zones

All times are in EDT time to prevent confusion due to time zone crossing. See the CTL16 flight status page for this flight to view local times or setup timezone preferences in your user account.

Time Position Orientation Groundspeed Altitude Reporting Facility
EDT Latitude Longitude Course Direction KTS MPH feet Rate Location/Type
Fri 08:37:53 PM 39.5147 -84.3775 44° Northeast 151 174 4,800  Level Indianapolis Center
Fri 08:39:06 PM 39.5567 -84.3200 47° Northeast 168 193 4,800 58 Level Indianapolis Center
Fri 08:39:36 PM 39.5736 -84.2961 47° Northeast 186 214 4,900 97 Climbing Indianapolis Center
Fri 08:40:08 PM 39.5914 -84.2728 45° Northeast 177 204 4,900 -111 Level Indianapolis Center
Fri 08:40:30 PM 39.6044 -84.2542 48° Northeast 181 208 4,800  Descending Indianapolis Center
Fri 08:41:09 PM 39.6253 -84.2244 48° Northeast 179 206 4,900 98 Climbing Indianapolis Center
Fri 08:41:31 PM 39.6394 -84.2072 43° Northeast 180 207 4,900  Level Indianapolis Center
Fri 08:42:10 PM 39.6606 -84.1761 49° Northeast 180 207 4,900 -98 Level Indianapolis Center
Fri 08:42:32 PM 39.6747 -84.1578 45° Northeast 182 209 4,800  Descending Indianapolis Center
Fri 08:43:00 PM 39.8169 -83.9357 44° Northeast  Level Estimated
Fri 08:43:12 PM 39.6967 -84.1289 45° Northeast 182 209 4,900  Level Indianapolis Center
Fri 08:43:33 PM 39.7122 -84.1083 45° Northeast 181 208 4,900  Level Indianapolis Center
Fri 08:44:13 PM 39.7328 -84.0814 45° Northeast 183 211 4,900  Level Indianapolis Center
Fri 08:44:34 PM 39.7492 -84.0642 39° Northeast 181 208 4,900  Level Indianapolis Center
Fri 08:45:14 PM 39.7697 -84.0372 45° Northeast 180 207 4,900  Level Indianapolis Center
Fri 08:45:35 PM 39.7822 -84.0169 51° Northeast 178 205 4,900 -97 Level Indianapolis Center
Fri 08:46:16 PM 39.8036 -83.9883 46° Northeast 180 207 4,800  Descending Indianapolis Center
Fri 08:46:35 PM 39.8172 -83.9700 46° Northeast 176 203 4,900 98 Climbing Indianapolis Center
Fri 08:47:17 PM 39.8381 -83.9408 47° Northeast 179 206 4,900  Level Indianapolis Center
Fri 08:47:36 PM 39.8503 -83.9225 49° Northeast 177 204 4,900  Level Indianapolis Center
Fri 08:48:18 PM 39.8733 -83.8947 43° Northeast 178 205 4,900  Level Indianapolis Center
Fri 08:48:43 PM 39.8897 -83.8706 49° Northeast 180 207 4,900  Level Indianapolis Center
Fri 08:49:20 PM 39.9081 -83.8467 45° Northeast 179 206 4,900  Level Indianapolis Center
Fri 08:49:43 PM 39.9228 -83.8231 51° Northeast 178 205 4,900  Level Indianapolis Center
Fri 08:50:21 PM 39.9417 -83.7983 45° Northeast 178 205 4,900  Level Indianapolis Center
Fri 08:50:38 PM 39.9553 -83.7808 45° Northeast 179 206 4,900  Level Indianapolis Center
Fri 08:51:22 PM 39.9761 -83.7508 48° Northeast 178 205 4,900  Level Indianapolis Center
Fri 08:52:23 PM 40.0106 -83.7058 45° Northeast 175 201 4,900  Level Indianapolis Center
Fri 08:53:25 PM 40.0453 -83.6619 44° Northeast 173 199 4,900  Level Indianapolis Center
Fri 08:54:26 PM 40.0786 -83.6167 46° Northeast 172 198 4,900  Level Indianapolis Center
Fri 08:55:35 PM 40.1161 -83.5586 50° Northeast 168 193 4,900  Level Indianapolis Center
Fri 08:56:29 PM 40.1475 -83.5156 46° Northeast 170 196 4,900  Level Indianapolis Center
Fri 08:57:30 PM 40.1803 -83.4686 48° Northeast 172 198 4,900  Level Indianapolis Center
Fri 08:58:31 PM 40.2136 -83.4219 47° Northeast 173 199 4,900  Level Indianapolis Center
Fri 08:59:33 PM 40.2469 -83.3728 48° Northeast 175 201 4,900 49 Level Indianapolis Center
Fri 09:00:34 PM 40.2803 -83.3236 48° Northeast 178 205 5,000 49 Climbing Indianapolis Center
Fri 09:01:35 PM 40.3150 -83.2747 47° Northeast 180 207 5,000 -78 Level Indianapolis Center
Fri 09:01:51 PM 40.3239 -83.2589 54° Northeast 181 208 4,900 -78 Descending Indianapolis Center
Fri 09:02:52 PM 40.3567 -83.2081 50° Northeast 179 206 4,900 57 Level Indianapolis Center
Fri 09:03:37 PM 40.3797 -83.1736 49° Northeast 180 207 5,000  Climbing Indianapolis Center
Fri 09:03:58 PM 40.3914 -83.1600 42° Northeast 170 196 4,900 -97 Descending Indianapolis Center
Fri 09:04:39 PM 40.4122 -83.1269 50° Northeast 173 199 4,900  Level Indianapolis Center
Fri 09:04:59 PM 40.4242 -83.1119 44° Northeast 174 200 4,900  Level Indianapolis Center
Fri 09:05:40 PM 40.4442 -83.0775 53° Northeast 175 201 4,900  Level Indianapolis Center
Fri 09:06:41 PM 40.4775 -83.0281 48° Northeast 178 205 4,900  Level Indianapolis Center
Fri 09:07:42 PM 40.5147 -82.9797 45° Northeast 177 204 4,900  Level Indianapolis Center
Fri 09:08:44 PM 40.5492 -82.9317 47° Northeast 178 205 4,900  Level Indianapolis Center
Fri 09:09:45 PM 40.5836 -82.8833 47° Northeast 179 206 4,900  Level Indianapolis Center
Fri 09:10:46 PM 40.6178 -82.8358 47° Northeast 178 205 4,900  Level Indianapolis Center
Fri 09:11:47 PM 40.6542 -82.7892 44° Northeast 180 207 4,900  Level Indianapolis Center
Fri 09:12:48 PM 40.6881 -82.7439 45° Northeast 174 200 4,900  Level Indianapolis Center
Fri 09:13:49 PM 40.7247 -82.6975 44° Northeast 179 206 4,900  Level Indianapolis Center
Fri 09:14:51 PM 40.7586 -82.6494 47° Northeast 177 204 4,900 49 Level Indianapolis Center
Fri 09:15:52 PM 40.7933 -82.6008 47° Northeast 179 206 5,000 49 Climbing Indianapolis Center
Fri 09:16:53 PM 40.8256 -82.5511 49° Northeast 177 204 5,000  Level Indianapolis Center
Fri 09:17:42 PM 40.8433 -82.4961 67° East 179 206 5,000  Level Cleveland Center
Fri 09:18:37 PM 40.8608 -82.4472 65° Northeast 174 200 5,000  Level Cleveland Center
Fri 09:19:43 PM 40.8847 -82.3847 63° Northeast 173 199 5,000  Level Cleveland Center
Fri 09:20:38 PM 40.9064 -82.3331 61° Northeast 179 206 5,000  Level Cleveland Center
Fri 09:21:39 PM 40.9322 -82.2789 58° Northeast 173 199 5,000  Level Cleveland Center
Fri 09:22:40 PM 40.9539 -82.2217 63° Northeast 170 196 5,000  Level Cleveland Center
Fri 09:23:46 PM 40.9775 -82.1644 61° Northeast 174 200 5,000  Level Cleveland Center
Fri 09:24:47 PM 41.0056 -82.1047 58° Northeast 173 199 5,000  Level Cleveland Center
Fri 09:25:42 PM 41.0292 -82.0556 58° Northeast 173 199 5,000  Level Cleveland Center
Fri 09:26:42 PM 41.0569 -82.0039 55° Northeast 174 200 5,000  Level Cleveland Center
Fri 09:27:43 PM 41.0806 -81.9494 60° Northeast 172 198 5,000 -47 Level Cleveland Center
Fri 09:28:50 PM 41.1103 -81.8894 57° Northeast 173 199 4,900 -298 Descending Cleveland Center
Fri 09:29:44 PM 41.1317 -81.8347 63° Northeast 186 214 4,400 -522 Descending Cleveland Center
Fri 09:30:45 PM 41.1719 -81.7942 37° Northeast 182 209 3,900 -496 Descending Cleveland Center
Fri 09:31:45 PM 41.2119 -81.7561 36° Northeast 181 208 3,400 -378 Descending Cleveland Center
Fri 09:32:52 PM 41.2581 -81.7128 35° Northeast 176 203 3,100 -188 Descending Cleveland Center
Fri 09:33:53 PM 41.2981 -81.6775 34° Northeast 161 185 3,000 -50 Descending Cleveland Center
Fri 09:34:53 PM 41.3339 -81.6422 36° Northeast 165 190 3,000  Level Cleveland Center
Fri 09:35:42 PM 41.3675 -81.6233 23° Northeast 155 178 3,000  Level Cleveland Center
Fri 09:36:42 PM 41.4092 -81.6269 356° North 158 182 3,000  Level Cleveland Center
Fri 09:37:37 PM 41.4506 -81.6386 348° North 161 185 3,000 -328 Level Cleveland Center
Fri 09:38:50 PM 41.5006 -81.6617 341° North 169 194 2,300 -777 Descending Cleveland Center
Fri 09:39:56 PM 41.5311 -81.7092 311° West 164 189 1,200 -1,000 Descending Cleveland Center

Login

Don't have an account? Register now (free) for customized features, flight alerts, and more!